sensor_id;sensor_type;location;lat;lon;timestamp;temperature;humidity
48666;DHT22;34452;50.796;4.994;2023-01-30T00:00:34;4.30;99.90
48666;DHT22;34452;50.796;4.994;2023-01-30T00:03:00;4.30;99.90
48666;DHT22;34452;50.796;4.994;2023-01-30T00:05:25;4.40;99.90
48666;DHT22;34452;50.796;4.994;2023-01-30T00:07:51;4.40;99.90
48666;DHT22;34452;50.796;4.994;2023-01-30T00:10:17;4.40;99.90
48666;DHT22;34452;50.796;4.994;2023-01-30T00:12:43;4.40;99.90
48666;DHT22;34452;50.796;4.994;2023-01-30T00:15:09;4.40;99.90
48666;DHT22;34452;50.796;4.994;2023-01-30T00:17:35;4.40;99.90
48666;DHT22;34452;50.796;4.994;2023-01-30T00:20:01;4.40;99.90
48666;DHT22;34452;50.796;4.994;2023-01-30T00:22:27;4.40;99.90
48666;DHT22;34452;50.796;4.994;2023-01-30T00:24:52;4.40;99.90
48666;DHT22;34452;50.796;4.994;2023-01-30T00:27:18;4.40;99.90
48666;DHT22;34452;50.796;4.994;2023-01-30T00:32:25;4.40;99.90
48666;DHT22;34452;50.796;4.994;2023-01-30T00:34:52;4.50;99.90
48666;DHT22;34452;50.796;4.994;2023-01-30T00:37:17;4.50;99.90
48666;DHT22;34452;50.796;4.994;2023-01-30T00:39:43;4.50;99.90
48666;DHT22;34452;50.796;4.994;2023-01-30T00:42:09;4.50;99.90
48666;DHT22;34452;50.796;4.994;2023-01-30T00:44:53;4.50;99.90
48666;DHT22;34452;50.796;4.994;2023-01-30T00:47:37;4.50;99.90
48666;DHT22;34452;50.796;4.994;2023-01-30T00:50:03;4.50;99.90
48666;DHT22;34452;50.796;4.994;2023-01-30T00:52:29;4.50;99.90
48666;DHT22;34452;50.796;4.994;2023-01-30T00:54:55;4.50;99.90
48666;DHT22;34452;50.796;4.994;2023-01-30T00:57:20;4.60;99.90
48666;DHT22;34452;50.796;4.994;2023-01-30T00:59:46;4.60;99.90
48666;DHT22;34452;50.796;4.994;2023-01-30T01:02:12;4.60;99.90
48666;DHT22;34452;50.796;4.994;2023-01-30T01:04:37;4.60;99.90
48666;DHT22;34452;50.796;4.994;2023-01-30T01:07:09;4.60;99.90
48666;DHT22;34452;50.796;4.994;2023-01-30T01:09:35;4.60;99.90
48666;DHT22;34452;50.796;4.994;2023-01-30T01:12:01;4.60;99.90
48666;DHT22;34452;50.796;4.994;2023-01-30T01:14:27;4.60;99.90
48666;DHT22;34452;50.796;4.994;2023-01-30T01:16:52;4.60;99.90
48666;DHT22;34452;50.796;4.994;2023-01-30T01:19:18;4.60;99.90
48666;DHT22;34452;50.796;4.994;2023-01-30T01:21:44;4.60;99.90
48666;DHT22;34452;50.796;4.994;2023-01-30T01:24:12;4.60;99.90
48666;DHT22;34452;50.796;4.994;2023-01-30T01:26:38;4.70;99.90
48666;DHT22;34452;50.796;4.994;2023-01-30T01:29:04;4.70;99.90
48666;DHT22;34452;50.796;4.994;2023-01-30T01:31:30;4.70;99.90
48666;DHT22;34452;50.796;4.994;2023-01-30T01:33:56;4.70;99.90
48666;DHT22;34452;50.796;4.994;2023-01-30T01:36:22;4.80;99.90
48666;DHT22;34452;50.796;4.994;2023-01-30T01:38:48;4.80;99.90
48666;DHT22;34452;50.796;4.994;2023-01-30T01:41:15;4.80;99.90
48666;DHT22;34452;50.796;4.994;2023-01-30T01:44:01;4.80;99.90
48666;DHT22;34452;50.796;4.994;2023-01-30T01:49:19;4.80;99.90
48666;DHT22;34452;50.796;4.994;2023-01-30T01:54:57;4.80;99.90
48666;DHT22;34452;50.796;4.994;2023-01-30T01:57:57;4.80;99.90
48666;DHT22;34452;50.796;4.994;2023-01-30T02:00:24;4.80;99.90
48666;DHT22;34452;50.796;4.994;2023-01-30T02:03:06;4.80;99.90
48666;DHT22;34452;50.796;4.994;2023-01-30T02:05:37;4.90;99.90
48666;DHT22;34452;50.796;4.994;2023-01-30T02:08:07;4.90;99.90
48666;DHT22;34452;50.796;4.994;2023-01-30T02:10:40;4.90;99.90
48666;DHT22;34452;50.796;4.994;2023-01-30T02:13:09;5.00;99.90
48666;DHT22;34452;50.796;4.994;2023-01-30T02:15:35;5.00;99.90
48666;DHT22;34452;50.796;4.994;2023-01-30T02:18:01;5.00;99.90
48666;DHT22;34452;50.796;4.994;2023-01-30T02:20:55;5.10;99.90
48666;DHT22;34452;50.796;4.994;2023-01-30T02:26:40;5.20;99.90
48666;DHT22;34452;50.796;4.994;2023-01-30T02:43:25;5.30;99.90
48666;DHT22;34452;50.796;4.994;2023-01-30T02:46:00;5.30;99.90
48666;DHT22;34452;50.796;4.994;2023-01-30T02:48:42;5.30;99.90
48666;DHT22;34452;50.796;4.994;2023-01-30T02:51:18;5.20;99.90
48666;DHT22;34452;50.796;4.994;2023-01-30T02:53:48;5.20;99.90
48666;DHT22;34452;50.796;4.994;2023-01-30T02:56:14;5.20;99.90
48666;DHT22;34452;50.796;4.994;2023-01-30T02:58:44;5.30;99.90
48666;DHT22;34452;50.796;4.994;2023-01-30T03:04:01;5.30;99.90
48666;DHT22;34452;50.796;4.994;2023-01-30T03:09:34;5.40;99.90
48666;DHT22;34452;50.796;4.994;2023-01-30T03:12:10;5.40;99.90
48666;DHT22;34452;50.796;4.994;2023-01-30T03:17:45;5.40;99.90
48666;DHT22;34452;50.796;4.994;2023-01-30T03:20:12;5.40;99.90
48666;DHT22;34452;50.796;4.994;2023-01-30T03:22:38;5.50;99.90
48666;DHT22;34452;50.796;4.994;2023-01-30T03:25:04;5.50;99.90
48666;DHT22;34452;50.796;4.994;2023-01-30T03:27:31;5.50;99.90
48666;DHT22;34452;50.796;4.994;2023-01-30T03:29:57;5.60;99.90
48666;DHT22;34452;50.796;4.994;2023-01-30T03:32:23;5.60;99.90
48666;DHT22;34452;50.796;4.994;2023-01-30T03:34:48;5.60;99.90
48666;DHT22;34452;50.796;4.994;2023-01-30T03:37:14;5.70;99.90
48666;DHT22;34452;50.796;4.994;2023-01-30T03:39:40;5.70;99.90
48666;DHT22;34452;50.796;4.994;2023-01-30T03:42:06;5.70;99.90
48666;DHT22;34452;50.796;4.994;2023-01-30T03:44:31;5.70;99.90
48666;DHT22;34452;50.796;4.994;2023-01-30T03:46:57;5.70;99.90
48666;DHT22;34452;50.796;4.994;2023-01-30T03:49:23;5.80;99.90
48666;DHT22;34452;50.796;4.994;2023-01-30T03:51:48;5.80;99.90
48666;DHT22;34452;50.796;4.994;2023-01-30T03:54:14;5.80;99.90
48666;DHT22;34452;50.796;4.994;2023-01-30T03:56:40;5.80;99.90
48666;DHT22;34452;50.796;4.994;2023-01-30T03:59:05;5.90;99.90
48666;DHT22;34452;50.796;4.994;2023-01-30T04:01:31;5.90;99.90
48666;DHT22;34452;50.796;4.994;2023-01-30T04:03:57;5.90;99.90
48666;DHT22;34452;50.796;4.994;2023-01-30T04:06:22;5.90;99.90
48666;DHT22;34452;50.796;4.994;2023-01-30T04:08:52;6.00;99.90
48666;DHT22;34452;50.796;4.994;2023-01-30T04:11:18;6.00;99.90
48666;DHT22;34452;50.796;4.994;2023-01-30T04:13:44;6.00;99.90
48666;DHT22;34452;50.796;4.994;2023-01-30T04:16:23;6.00;99.90
48666;DHT22;34452;50.796;4.994;2023-01-30T04:18:50;6.10;99.90
48666;DHT22;34452;50.796;4.994;2023-01-30T04:21:16;6.10;99.90
48666;DHT22;34452;50.796;4.994;2023-01-30T04:23:42;6.10;99.90
48666;DHT22;34452;50.796;4.994;2023-01-30T04:26:08;6.10;99.90
48666;DHT22;34452;50.796;4.994;2023-01-30T04:28:34;6.10;99.90
48666;DHT22;34452;50.796;4.994;2023-01-30T04:31:00;6.20;99.90
48666;DHT22;34452;50.796;4.994;2023-01-30T04:33:26;6.20;99.90
48666;DHT22;34452;50.796;4.994;2023-01-30T04:35:54;6.20;99.90
48666;DHT22;34452;50.796;4.994;2023-01-30T04:38:21;6.20;99.90
48666;DHT22;34452;50.796;4.994;2023-01-30T04:40:48;6.20;99.90
48666;DHT22;34452;50.796;4.994;2023-01-30T04:43:14;6.20;99.90
48666;DHT22;34452;50.796;4.994;2023-01-30T04:45:42;6.10;99.90
48666;DHT22;34452;50.796;4.994;2023-01-30T04:48:08;6.10;99.90
48666;DHT22;34452;50.796;4.994;2023-01-30T04:50:34;6.10;99.90
48666;DHT22;34452;50.796;4.994;2023-01-30T04:52:59;6.10;99.90
48666;DHT22;34452;50.796;4.994;2023-01-30T04:55:25;6.10;99.90
48666;DHT22;34452;50.796;4.994;2023-01-30T04:57:51;6.00;99.90
48666;DHT22;34452;50.796;4.994;2023-01-30T05:00:16;6.10;99.90
48666;DHT22;34452;50.796;4.994;2023-01-30T05:02:42;6.00;99.90
48666;DHT22;34452;50.796;4.994;2023-01-30T05:05:08;6.00;99.90
48666;DHT22;34452;50.796;4.994;2023-01-30T05:07:34;6.00;99.90
48666;DHT22;34452;50.796;4.994;2023-01-30T05:09:59;6.00;99.90
48666;DHT22;34452;50.796;4.994;2023-01-30T05:12:27;6.00;99.90
48666;DHT22;34452;50.796;4.994;2023-01-30T05:14:53;6.00;99.90
48666;DHT22;34452;50.796;4.994;2023-01-30T05:17:19;6.00;99.90
48666;DHT22;34452;50.796;4.994;2023-01-30T05:19:44;6.00;99.90
48666;DHT22;34452;50.796;4.994;2023-01-30T05:22:10;6.00;99.90
48666;DHT22;34452;50.796;4.994;2023-01-30T05:24:36;6.00;99.90
48666;DHT22;34452;50.796;4.994;2023-01-30T05:27:02;6.10;99.90
48666;DHT22;34452;50.796;4.994;2023-01-30T05:29:28;6.10;99.90
48666;DHT22;34452;50.796;4.994;2023-01-30T05:31:54;6.10;99.90
48666;DHT22;34452;50.796;4.994;2023-01-30T05:34:19;6.10;99.90
48666;DHT22;34452;50.796;4.994;2023-01-30T05:36:45;6.10;99.90
48666;DHT22;34452;50.796;4.994;2023-01-30T05:39:11;6.10;99.90
48666;DHT22;34452;50.796;4.994;2023-01-30T05:41:36;6.20;99.90
48666;DHT22;34452;50.796;4.994;2023-01-30T05:44:02;6.20;99.90
48666;DHT22;34452;50.796;4.994;2023-01-30T05:46:28;6.30;99.90
48666;DHT22;34452;50.796;4.994;2023-01-30T05:48:54;6.30;99.90
48666;DHT22;34452;50.796;4.994;2023-01-30T05:51:22;6.30;99.90
48666;DHT22;34452;50.796;4.994;2023-01-30T05:53:48;6.30;99.90
48666;DHT22;34452;50.796;4.994;2023-01-30T05:56:14;6.40;99.90
48666;DHT22;34452;50.796;4.994;2023-01-30T05:58:41;6.40;99.90
48666;DHT22;34452;50.796;4.994;2023-01-30T06:01:09;6.40;99.90
48666;DHT22;34452;50.796;4.994;2023-01-30T06:03:36;6.40;99.90
48666;DHT22;34452;50.796;4.994;2023-01-30T06:06:03;6.50;99.90
48666;DHT22;34452;50.796;4.994;2023-01-30T06:08:29;6.50;99.90
48666;DHT22;34452;50.796;4.994;2023-01-30T06:10:58;6.50;99.90
48666;DHT22;34452;50.796;4.994;2023-01-30T06:13:24;6.60;99.90
48666;DHT22;34452;50.796;4.994;2023-01-30T06:15:51;6.60;99.90
48666;DHT22;34452;50.796;4.994;2023-01-30T06:18:17;6.60;99.90
48666;DHT22;34452;50.796;4.994;2023-01-30T06:21:01;6.60;99.90
48666;DHT22;34452;50.796;4.994;2023-01-30T06:23:27;6.60;99.90
48666;DHT22;34452;50.796;4.994;2023-01-30T06:25:54;6.60;99.90
48666;DHT22;34452;50.796;4.994;2023-01-30T06:28:21;6.70;99.90
48666;DHT22;34452;50.796;4.994;2023-01-30T06:30:47;6.70;99.90
48666;DHT22;34452;50.796;4.994;2023-01-30T06:33:12;6.70;99.90
48666;DHT22;34452;50.796;4.994;2023-01-30T06:35:39;6.70;99.90
48666;DHT22;34452;50.796;4.994;2023-01-30T06:38:06;6.80;99.90
48666;DHT22;34452;50.796;4.994;2023-01-30T06:40:37;6.70;99.90
48666;DHT22;34452;50.796;4.994;2023-01-30T06:43:03;6.80;99.90
48666;DHT22;34452;50.796;4.994;2023-01-30T06:45:29;6.80;99.90
48666;DHT22;34452;50.796;4.994;2023-01-30T06:47:55;6.80;99.90
48666;DHT22;34452;50.796;4.994;2023-01-30T06:50:23;6.90;99.90
48666;DHT22;34452;50.796;4.994;2023-01-30T06:52:50;6.90;99.90
48666;DHT22;34452;50.796;4.994;2023-01-30T06:55:19;6.90;99.90
48666;DHT22;34452;50.796;4.994;2023-01-30T06:57:45;6.90;99.90
48666;DHT22;34452;50.796;4.994;2023-01-30T07:00:14;6.90;99.90
48666;DHT22;34452;50.796;4.994;2023-01-30T07:02:40;7.00;99.90
48666;DHT22;34452;50.796;4.994;2023-01-30T07:05:07;7.00;99.90
48666;DHT22;34452;50.796;4.994;2023-01-30T07:07:33;7.00;99.90
48666;DHT22;34452;50.796;4.994;2023-01-30T07:09:59;7.00;99.90
48666;DHT22;34452;50.796;4.994;2023-01-30T07:12:26;7.10;99.90
48666;DHT22;34452;50.796;4.994;2023-01-30T07:14:52;7.10;99.90
48666;DHT22;34452;50.796;4.994;2023-01-30T07:17:19;7.00;99.90
48666;DHT22;34452;50.796;4.994;2023-01-30T07:19:45;7.10;99.90
48666;DHT22;34452;50.796;4.994;2023-01-30T07:22:11;7.00;99.90
48666;DHT22;34452;50.796;4.994;2023-01-30T07:24:37;7.10;99.90
48666;DHT22;34452;50.796;4.994;2023-01-30T07:27:06;7.10;99.90
48666;DHT22;34452;50.796;4.994;2023-01-30T07:29:34;7.10;99.90
48666;DHT22;34452;50.796;4.994;2023-01-30T07:32:00;7.10;99.90
48666;DHT22;34452;50.796;4.994;2023-01-30T07:34:26;7.10;99.90
48666;DHT22;34452;50.796;4.994;2023-01-30T07:36:52;7.10;99.90
48666;DHT22;34452;50.796;4.994;2023-01-30T07:39:18;7.10;99.90
48666;DHT22;34452;50.796;4.994;2023-01-30T07:41:43;7.10;99.90
48666;DHT22;34452;50.796;4.994;2023-01-30T07:44:09;7.10;99.90
48666;DHT22;34452;50.796;4.994;2023-01-30T07:46:35;7.10;99.90
48666;DHT22;34452;50.796;4.994;2023-01-30T07:49:01;7.10;99.90
48666;DHT22;34452;50.796;4.994;2023-01-30T07:51:27;7.10;99.90
48666;DHT22;34452;50.796;4.994;2023-01-30T07:53:53;7.10;99.90
48666;DHT22;34452;50.796;4.994;2023-01-30T07:56:19;7.10;99.90
48666;DHT22;34452;50.796;4.994;2023-01-30T07:58:55;7.20;99.90
48666;DHT22;34452;50.796;4.994;2023-01-30T08:01:21;7.10;99.90
48666;DHT22;34452;50.796;4.994;2023-01-30T08:03:47;7.10;99.90
48666;DHT22;34452;50.796;4.994;2023-01-30T08:06:15;7.10;99.90
48666;DHT22;34452;50.796;4.994;2023-01-30T08:08:41;7.00;99.90
48666;DHT22;34452;50.796;4.994;2023-01-30T08:11:06;7.00;99.90
48666;DHT22;34452;50.796;4.994;2023-01-30T08:13:33;7.10;99.90
48666;DHT22;34452;50.796;4.994;2023-01-30T08:16:00;7.10;99.90
48666;DHT22;34452;50.796;4.994;2023-01-30T08:18:27;7.20;99.90
48666;DHT22;34452;50.796;4.994;2023-01-30T08:20:57;7.20;99.90
48666;DHT22;34452;50.796;4.994;2023-01-30T08:23:22;7.30;99.90
48666;DHT22;34452;50.796;4.994;2023-01-30T08:25:48;7.30;99.90
48666;DHT22;34452;50.796;4.994;2023-01-30T08:28:14;7.40;99.90
48666;DHT22;34452;50.796;4.994;2023-01-30T08:30:42;7.40;99.90
48666;DHT22;34452;50.796;4.994;2023-01-30T08:33:07;7.40;99.90
48666;DHT22;34452;50.796;4.994;2023-01-30T08:35:33;7.40;99.90
48666;DHT22;34452;50.796;4.994;2023-01-30T08:37:59;7.40;99.90
48666;DHT22;34452;50.796;4.994;2023-01-30T08:40:24;7.50;99.90
48666;DHT22;34452;50.796;4.994;2023-01-30T08:42:50;7.40;99.90
48666;DHT22;34452;50.796;4.994;2023-01-30T08:45:16;7.40;99.90
48666;DHT22;34452;50.796;4.994;2023-01-30T08:47:41;7.40;99.90
48666;DHT22;34452;50.796;4.994;2023-01-30T08:50:08;7.40;99.90
48666;DHT22;34452;50.796;4.994;2023-01-30T08:52:34;7.50;99.90
48666;DHT22;34452;50.796;4.994;2023-01-30T08:54:59;7.60;99.90
48666;DHT22;34452;50.796;4.994;2023-01-30T08:57:25;7.70;99.90
48666;DHT22;34452;50.796;4.994;2023-01-30T08:59:51;7.70;99.90
48666;DHT22;34452;50.796;4.994;2023-01-30T09:02:16;7.70;99.90
48666;DHT22;34452;50.796;4.994;2023-01-30T09:04:43;7.70;99.90
48666;DHT22;34452;50.796;4.994;2023-01-30T09:07:08;7.60;99.90
48666;DHT22;34452;50.796;4.994;2023-01-30T09:09:34;7.70;99.90
48666;DHT22;34452;50.796;4.994;2023-01-30T09:12:00;7.60;99.90
48666;DHT22;34452;50.796;4.994;2023-01-30T09:14:26;7.60;99.90
48666;DHT22;34452;50.796;4.994;2023-01-30T09:16:51;7.60;99.90
48666;DHT22;34452;50.796;4.994;2023-01-30T09:19:22;7.60;99.90
48666;DHT22;34452;50.796;4.994;2023-01-30T09:21:49;7.60;99.90
48666;DHT22;34452;50.796;4.994;2023-01-30T09:24:15;7.50;99.90
48666;DHT22;34452;50.796;4.994;2023-01-30T09:26:41;7.50;99.90
48666;DHT22;34452;50.796;4.994;2023-01-30T09:29:10;7.60;99.90
48666;DHT22;34452;50.796;4.994;2023-01-30T09:31:36;7.60;99.90
48666;DHT22;34452;50.796;4.994;2023-01-30T09:34:02;7.70;99.90
48666;DHT22;34452;50.796;4.994;2023-01-30T09:36:28;7.70;99.90
48666;DHT22;34452;50.796;4.994;2023-01-30T09:38:53;7.70;99.90
48666;DHT22;34452;50.796;4.994;2023-01-30T09:41:52;7.80;99.90
48666;DHT22;34452;50.796;4.994;2023-01-30T09:47:10;7.90;99.90
48666;DHT22;34452;50.796;4.994;2023-01-30T09:55:41;8.00;99.90
48666;DHT22;34452;50.796;4.994;2023-01-30T09:58:07;8.00;99.90
48666;DHT22;34452;50.796;4.994;2023-01-30T10:00:39;8.00;99.90
48666;DHT22;34452;50.796;4.994;2023-01-30T10:03:09;8.00;99.90
48666;DHT22;34452;50.796;4.994;2023-01-30T10:11:32;8.10;99.90
48666;DHT22;34452;50.796;4.994;2023-01-30T10:26:00;8.40;99.90
48666;DHT22;34452;50.796;4.994;2023-01-30T10:28:49;8.40;99.90
48666;DHT22;34452;50.796;4.994;2023-01-30T10:31:19;8.40;99.90
48666;DHT22;34452;50.796;4.994;2023-01-30T10:34:02;8.50;99.90
48666;DHT22;34452;50.796;4.994;2023-01-30T10:39:53;8.60;99.90
48666;DHT22;34452;50.796;4.994;2023-01-30T10:45:27;8.70;99.90
48666;DHT22;34452;50.796;4.994;2023-01-30T10:48:16;8.70;99.90
48666;DHT22;34452;50.796;4.994;2023-01-30T10:55:43;8.70;99.90
48666;DHT22;34452;50.796;4.994;2023-01-30T11:00:46;8.70;99.90
48666;DHT22;34452;50.796;4.994;2023-01-30T11:03:17;8.80;99.90
48666;DHT22;34452;50.796;4.994;2023-01-30T11:05:48;8.90;99.90
48666;DHT22;34452;50.796;4.994;2023-01-30T11:08:33;8.80;99.90
48666;DHT22;34452;50.796;4.994;2023-01-30T11:11:00;8.80;99.90
48666;DHT22;34452;50.796;4.994;2023-01-30T11:13:29;8.70;99.90
48666;DHT22;34452;50.796;4.994;2023-01-30T11:15:57;8.70;99.90
48666;DHT22;34452;50.796;4.994;2023-01-30T11:18:24;8.70;99.90
48666;DHT22;34452;50.796;4.994;2023-01-30T11:20:55;8.70;99.90
48666;DHT22;34452;50.796;4.994;2023-01-30T11:26:33;8.70;99.90
48666;DHT22;34452;50.796;4.994;2023-01-30T11:29:15;8.70;99.90
48666;DHT22;34452;50.796;4.994;2023-01-30T11:31:41;8.70;99.90
48666;DHT22;34452;50.796;4.994;2023-01-30T11:34:22;8.70;99.90
48666;DHT22;34452;50.796;4.994;2023-01-30T11:36:49;8.70;99.90
48666;DHT22;34452;50.796;4.994;2023-01-30T11:41:45;8.80;99.90
48666;DHT22;34452;50.796;4.994;2023-01-30T11:44:39;8.80;99.90
48666;DHT22;34452;50.796;4.994;2023-01-30T11:47:13;8.80;99.90
48666;DHT22;34452;50.796;4.994;2023-01-30T11:49:44;8.80;99.90
48666;DHT22;34452;50.796;4.994;2023-01-30T11:52:12;8.80;99.90
48666;DHT22;34452;50.796;4.994;2023-01-30T11:54:40;8.80;99.90
48666;DHT22;34452;50.796;4.994;2023-01-30T11:57:25;8.80;99.90
48666;DHT22;34452;50.796;4.994;2023-01-30T11:59:55;8.70;99.90
48666;DHT22;34452;50.796;4.994;2023-01-30T12:05:16;8.70;99.90
48666;DHT22;34452;50.796;4.994;2023-01-30T12:07:44;8.70;99.90
48666;DHT22;34452;50.796;4.994;2023-01-30T12:12:51;8.70;99.90
48666;DHT22;34452;50.796;4.994;2023-01-30T12:15:30;8.70;99.90
48666;DHT22;34452;50.796;4.994;2023-01-30T12:18:12;8.70;99.90
48666;DHT22;34452;50.796;4.994;2023-01-30T12:20:50;8.70;99.90
48666;DHT22;34452;50.796;4.994;2023-01-30T12:23:26;8.60;99.90
48666;DHT22;34452;50.796;4.994;2023-01-30T12:26:16;8.60;99.90
48666;DHT22;34452;50.796;4.994;2023-01-30T12:28:47;8.60;99.90
48666;DHT22;34452;50.796;4.994;2023-01-30T12:34:03;8.60;99.90
48666;DHT22;34452;50.796;4.994;2023-01-30T12:41:43;8.70;99.90
48666;DHT22;34452;50.796;4.994;2023-01-30T12:47:11;8.60;99.90
48666;DHT22;34452;50.796;4.994;2023-01-30T12:49:50;8.60;99.90
48666;DHT22;34452;50.796;4.994;2023-01-30T12:55:46;8.70;99.90
48666;DHT22;34452;50.796;4.994;2023-01-30T13:01:36;8.70;99.90
48666;DHT22;34452;50.796;4.994;2023-01-30T13:09:32;8.70;99.90
48666;DHT22;34452;50.796;4.994;2023-01-30T13:12:33;8.70;99.90
48666;DHT22;34452;50.796;4.994;2023-01-30T13:15:20;8.70;99.90
48666;DHT22;34452;50.796;4.994;2023-01-30T13:20:46;8.60;99.90
48666;DHT22;34452;50.796;4.994;2023-01-30T13:23:16;8.60;99.90
48666;DHT22;34452;50.796;4.994;2023-01-30T13:28:31;8.60;99.90
48666;DHT22;34452;50.796;4.994;2023-01-30T13:30:59;8.60;99.90
48666;DHT22;34452;50.796;4.994;2023-01-30T13:33:31;8.60;99.90
48666;DHT22;34452;50.796;4.994;2023-01-30T13:39:02;8.50;99.90
48666;DHT22;34452;50.796;4.994;2023-01-30T13:41:36;8.60;99.90
48666;DHT22;34452;50.796;4.994;2023-01-30T13:44:14;8.50;99.90
48666;DHT22;34452;50.796;4.994;2023-01-30T13:46:41;8.60;99.90
48666;DHT22;34452;50.796;4.994;2023-01-30T13:49:17;8.60;99.90
48666;DHT22;34452;50.796;4.994;2023-01-30T13:55:02;8.60;99.90
48666;DHT22;34452;50.796;4.994;2023-01-30T13:57:46;8.60;99.90
48666;DHT22;34452;50.796;4.994;2023-01-30T14:11:28;8.80;99.90
48666;DHT22;34452;50.796;4.994;2023-01-30T14:16:52;8.80;99.90
48666;DHT22;34452;50.796;4.994;2023-01-30T14:24:41;8.90;99.90
48666;DHT22;34452;50.796;4.994;2023-01-30T14:27:26;9.00;99.90
48666;DHT22;34452;50.796;4.994;2023-01-30T14:29:56;9.00;99.90
48666;DHT22;34452;50.796;4.994;2023-01-30T14:35:15;8.90;99.90
48666;DHT22;34452;50.796;4.994;2023-01-30T14:40:35;8.80;99.90
48666;DHT22;34452;50.796;4.994;2023-01-30T14:51:41;8.70;99.90
48666;DHT22;34452;50.796;4.994;2023-01-30T14:54:19;8.70;99.90
48666;DHT22;34452;50.796;4.994;2023-01-30T15:04:53;8.70;99.90
48666;DHT22;34452;50.796;4.994;2023-01-30T15:07:55;8.70;99.90
48666;DHT22;34452;50.796;4.994;2023-01-30T15:13:09;8.70;99.90
48666;DHT22;34452;50.796;4.994;2023-01-30T15:32:31;8.30;99.90
48666;DHT22;34452;50.796;4.994;2023-01-30T15:35:00;8.30;99.90
48666;DHT22;34452;50.796;4.994;2023-01-30T15:40:18;8.20;99.90
48666;DHT22;34452;50.796;4.994;2023-01-30T15:43:09;8.20;99.90
48666;DHT22;34452;50.796;4.994;2023-01-30T15:45:42;8.10;99.90
48666;DHT22;34452;50.796;4.994;2023-01-30T15:51:03;8.00;99.90
48666;DHT22;34452;50.796;4.994;2023-01-30T15:53:32;7.90;99.90
48666;DHT22;34452;50.796;4.994;2023-01-30T15:56:01;7.90;99.90
48666;DHT22;34452;50.796;4.994;2023-01-30T15:58:27;7.90;99.90
48666;DHT22;34452;50.796;4.994;2023-01-30T16:00:56;7.80;99.90
48666;DHT22;34452;50.796;4.994;2023-01-30T16:03:42;7.80;99.90
48666;DHT22;34452;50.796;4.994;2023-01-30T16:06:28;7.80;99.90
48666;DHT22;34452;50.796;4.994;2023-01-30T16:08:56;7.80;99.90
48666;DHT22;34452;50.796;4.994;2023-01-30T16:11:42;7.80;99.90
48666;DHT22;34452;50.796;4.994;2023-01-30T16:14:28;7.70;99.90
48666;DHT22;34452;50.796;4.994;2023-01-30T16:16:58;7.70;99.90
48666;DHT22;34452;50.796;4.994;2023-01-30T16:19:29;7.70;99.90
48666;DHT22;34452;50.796;4.994;2023-01-30T16:21:58;7.70;99.90
48666;DHT22;34452;50.796;4.994;2023-01-30T16:24:27;7.70;99.90
48666;DHT22;34452;50.796;4.994;2023-01-30T16:26:57;7.70;99.90
48666;DHT22;34452;50.796;4.994;2023-01-30T16:29:25;7.80;99.90
48666;DHT22;34452;50.796;4.994;2023-01-30T16:31:52;7.70;99.90
48666;DHT22;34452;50.796;4.994;2023-01-30T16:34:28;7.70;99.90
48666;DHT22;34452;50.796;4.994;2023-01-30T16:36:54;7.70;99.90
48666;DHT22;34452;50.796;4.994;2023-01-30T16:39:36;7.70;99.90
48666;DHT22;34452;50.796;4.994;2023-01-30T16:42:19;7.70;99.90
48666;DHT22;34452;50.796;4.994;2023-01-30T16:44:46;7.70;99.90
48666;DHT22;34452;50.796;4.994;2023-01-30T16:47:24;7.70;99.90
48666;DHT22;34452;50.796;4.994;2023-01-30T16:49:52;7.70;99.90
48666;DHT22;34452;50.796;4.994;2023-01-30T16:52:22;7.70;99.90
48666;DHT22;34452;50.796;4.994;2023-01-30T16:54:53;7.70;99.90
48666;DHT22;34452;50.796;4.994;2023-01-30T16:57:37;7.70;99.90
48666;DHT22;34452;50.796;4.994;2023-01-30T17:00:07;7.70;99.90
48666;DHT22;34452;50.796;4.994;2023-01-30T17:02:41;7.60;99.90
48666;DHT22;34452;50.796;4.994;2023-01-30T17:07:53;7.60;99.90
48666;DHT22;34452;50.796;4.994;2023-01-30T17:13:03;7.50;99.90
48666;DHT22;34452;50.796;4.994;2023-01-30T17:15:32;7.40;99.90
48666;DHT22;34452;50.796;4.994;2023-01-30T17:17:58;7.40;99.90
48666;DHT22;34452;50.796;4.994;2023-01-30T17:20:29;7.40;99.90
48666;DHT22;34452;50.796;4.994;2023-01-30T17:23:02;7.40;99.90
48666;DHT22;34452;50.796;4.994;2023-01-30T17:25:33;7.40;99.90
48666;DHT22;34452;50.796;4.994;2023-01-30T17:28:04;7.40;99.90
48666;DHT22;34452;50.796;4.994;2023-01-30T17:30:31;7.40;99.90
48666;DHT22;34452;50.796;4.994;2023-01-30T17:32:56;7.40;99.90
48666;DHT22;34452;50.796;4.994;2023-01-30T17:35:22;7.40;99.90
48666;DHT22;34452;50.796;4.994;2023-01-30T17:37:48;7.40;99.90
48666;DHT22;34452;50.796;4.994;2023-01-30T17:40:18;7.30;99.90
48666;DHT22;34452;50.796;4.994;2023-01-30T17:42:44;7.30;99.90
48666;DHT22;34452;50.796;4.994;2023-01-30T17:45:11;7.40;99.90
48666;DHT22;34452;50.796;4.994;2023-01-30T17:47:36;7.30;99.90
48666;DHT22;34452;50.796;4.994;2023-01-30T17:50:03;7.30;99.90
48666;DHT22;34452;50.796;4.994;2023-01-30T17:52:29;7.30;99.90
48666;DHT22;34452;50.796;4.994;2023-01-30T17:54:54;7.30;99.90
48666;DHT22;34452;50.796;4.994;2023-01-30T17:57:20;7.30;99.90
48666;DHT22;34452;50.796;4.994;2023-01-30T17:59:46;7.40;99.90
48666;DHT22;34452;50.796;4.994;2023-01-30T18:02:12;7.40;99.90
48666;DHT22;34452;50.796;4.994;2023-01-30T18:04:38;7.30;99.90
48666;DHT22;34452;50.796;4.994;2023-01-30T18:07:06;7.30;99.90
48666;DHT22;34452;50.796;4.994;2023-01-30T18:09:34;7.30;99.90
48666;DHT22;34452;50.796;4.994;2023-01-30T18:12:00;7.30;99.90
48666;DHT22;34452;50.796;4.994;2023-01-30T18:14:26;7.20;99.90
48666;DHT22;34452;50.796;4.994;2023-01-30T18:16:52;7.20;99.90
48666;DHT22;34452;50.796;4.994;2023-01-30T18:19:20;7.20;99.90
48666;DHT22;34452;50.796;4.994;2023-01-30T18:21:48;7.20;99.90
48666;DHT22;34452;50.796;4.994;2023-01-30T18:24:14;7.30;99.90
48666;DHT22;34452;50.796;4.994;2023-01-30T18:26:40;7.20;99.90
48666;DHT22;34452;50.796;4.994;2023-01-30T18:29:07;7.30;99.90
48666;DHT22;34452;50.796;4.994;2023-01-30T18:31:34;7.20;99.90
48666;DHT22;34452;50.796;4.994;2023-01-30T18:34:00;7.20;99.90
48666;DHT22;34452;50.796;4.994;2023-01-30T18:36:25;7.20;99.90
48666;DHT22;34452;50.796;4.994;2023-01-30T18:38:51;7.20;99.90
48666;DHT22;34452;50.796;4.994;2023-01-30T18:41:20;7.10;99.90
48666;DHT22;34452;50.796;4.994;2023-01-30T18:43:54;7.10;99.90
48666;DHT22;34452;50.796;4.994;2023-01-30T18:46:21;7.10;99.90
48666;DHT22;34452;50.796;4.994;2023-01-30T18:48:47;7.10;99.90
48666;DHT22;34452;50.796;4.994;2023-01-30T18:51:15;7.10;99.90
48666;DHT22;34452;50.796;4.994;2023-01-30T18:53:44;7.10;99.90
48666;DHT22;34452;50.796;4.994;2023-01-30T18:56:13;7.00;99.90
48666;DHT22;34452;50.796;4.994;2023-01-30T18:58:39;6.90;99.90
48666;DHT22;34452;50.796;4.994;2023-01-30T19:01:20;6.80;99.90
48666;DHT22;34452;50.796;4.994;2023-01-30T19:03:46;6.70;99.90
48666;DHT22;34452;50.796;4.994;2023-01-30T19:06:13;6.60;99.90
48666;DHT22;34452;50.796;4.994;2023-01-30T19:08:41;6.50;99.90
48666;DHT22;34452;50.796;4.994;2023-01-30T19:11:09;6.40;99.90